Time;durP1;ratioP1;P1;durP2;ratioP2;P2;SDS_P1;SDS_P2;PMS_P1;PMS_P2;Temp;Humidity;BMP_temperature;BMP_pressure;BME280_temperature;BME280_humidity;BME280_pressure;Samples;Min_cycle;Max_cycle;Signal;HPM_P1;HPM_P2
2023/03/07 00:01:30;;;;;;;68.90;42.40;;;8.00;99.90;;;;;;4939713;29;20047;-70
2023/03/07 00:04:00;;;;;;;65.20;40.08;;;8.00;99.90;;;;;;4951995;28;20117;-73
2023/03/07 00:06:28;;;;;;;68.72;41.25;;;8.10;99.90;;;;;;4950607;29;20488;-70
2023/03/07 00:08:58;;;;;;;74.80;40.33;;;8.00;99.90;;;;;;4933281;29;20051;-69
2023/03/07 00:11:26;;;;;;;60.25;37.25;;;7.90;99.90;;;;;;4950714;28;20491;-69
2023/03/07 00:13:54;;;;;;;60.53;37.22;;;8.10;99.90;;;;;;4965105;28;20050;-71
2023/03/07 00:16:23;;;;;;;56.53;38.05;;;8.20;99.90;;;;;;4971011;28;20043;-72
2023/03/07 00:18:50;;;;;;;60.30;34.67;;;8.10;99.90;;;;;;4971154;28;20129;-73
2023/03/07 00:21:21;;;;;;;55.40;35.20;;;8.10;99.90;;;;;;4969002;28;20038;-72
2023/03/07 00:23:50;;;;;;;61.15;38.60;;;8.10;99.90;;;;;;4971581;28;20047;-72
2023/03/07 00:26:20;;;;;;;73.68;40.60;;;7.90;99.90;;;;;;4969031;28;20438;-71
2023/03/07 00:28:49;;;;;;;64.55;39.72;;;7.90;99.90;;;;;;4936937;28;20058;-70
2023/03/07 00:31:18;;;;;;;66.25;41.78;;;7.80;99.90;;;;;;4951580;28;20047;-71
2023/03/07 00:33:45;;;;;;;62.47;39.95;;;7.70;99.90;;;;;;4971032;28;20066;-72
2023/03/07 00:36:18;;;;;;;61.38;40.90;;;7.80;99.90;;;;;;4953027;28;20141;-71
2023/03/07 00:38:46;;;;;;;67.97;39.28;;;7.70;99.90;;;;;;4958955;28;20447;-73
2023/03/07 00:41:16;;;;;;;62.95;37.83;;;7.60;99.90;;;;;;4968410;28;20045;-72
2023/03/07 00:43:45;;;;;;;63.97;38.80;;;7.80;99.90;;;;;;4971018;28;20043;-71
2023/03/07 00:46:17;;;;;;;61.95;39.28;;;7.80;99.90;;;;;;4937396;28;20125;-71
2023/03/07 00:48:47;;;;;;;65.30;38.72;;;7.70;99.90;;;;;;4970280;28;20047;-73
2023/03/07 00:51:17;;;;;;;73.18;40.67;;;7.90;99.90;;;;;;4968301;28;20034;-72
2023/03/07 00:53:45;;;;;;;64.00;39.72;;;7.80;99.90;;;;;;4970274;28;20049;-73
2023/03/07 00:56:18;;;;;;;65.70;41.03;;;7.80;99.90;;;;;;4970915;28;20062;-72
2023/03/07 00:58:48;;;;;;;71.10;41.92;;;7.70;99.90;;;;;;4953358;28;20047;-73
2023/03/07 01:01:19;;;;;;;65.22;41.13;;;7.70;99.90;;;;;;4970167;28;20043;-71
2023/03/07 01:03:52;;;;;;;72.97;41.30;;;7.60;99.90;;;;;;4953304;28;20484;-72
2023/03/07 01:06:23;;;;;;;66.60;42.30;;;7.60;99.90;;;;;;4954553;28;20590;-73
2023/03/07 01:08:51;;;;;;;69.28;40.88;;;7.70;99.90;;;;;;4939105;28;20054;-72
2023/03/07 01:11:18;;;;;;;66.07;41.92;;;7.50;99.90;;;;;;4967916;28;20054;-72
2023/03/07 01:13:46;;;;;;;72.80;42.60;;;7.40;99.90;;;;;;4970267;28;20129;-72
2023/03/07 01:16:22;;;;;;;66.65;42.33;;;7.40;99.90;;;;;;4951706;29;20051;-72
2023/03/07 01:18:59;;;;;;;63.55;40.00;;;7.30;99.90;;;;;;4965610;28;20495;-72
2023/03/07 01:21:33;;;;;;;67.55;40.75;;;7.30;99.90;;;;;;4954524;28;20458;-72
2023/03/07 01:24:00;;;;;;;71.30;39.78;;;7.20;99.90;;;;;;4954238;28;20046;-73
2023/03/07 01:26:30;;;;;;;69.00;39.88;;;7.30;99.90;;;;;;4938754;28;20423;-73
2023/03/07 01:29:00;;;;;;;59.03;37.25;;;7.40;99.90;;;;;;4970693;28;20053;-73
2023/03/07 01:31:29;;;;;;;61.58;38.15;;;7.50;99.90;;;;;;4970250;28;20120;-72
2023/03/07 01:33:57;;;;;;;64.32;37.40;;;7.40;99.90;;;;;;4971991;28;20447;-73
2023/03/07 01:36:28;;;;;;;63.72;37.17;;;7.40;99.90;;;;;;4971209;28;20047;-72
2023/03/07 01:39:03;;;;;;;60.33;38.08;;;7.40;99.90;;;;;;4968770;28;20036;-72
2023/03/07 01:41:32;;;;;;;62.10;38.58;;;7.10;99.90;;;;;;4963336;28;20510;-73
2023/03/07 01:44:01;;;;;;;67.85;40.72;;;7.00;99.90;;;;;;4954271;28;20395;-72
2023/03/07 01:46:42;;;;;;;59.95;38.25;;;7.00;99.90;;;;;;4968266;28;20394;-72
2023/03/07 01:49:17;;;;;;;61.78;38.40;;;7.00;99.90;;;;;;4965607;28;20403;-70
2023/03/07 01:51:49;;;;;;;60.85;39.03;;;7.00;99.90;;;;;;4935887;28;20054;-72
2023/03/07 01:54:19;;;;;;;69.18;40.15;;;7.00;99.90;;;;;;4954411;28;20046;-70
2023/03/07 01:56:46;;;;;;;60.13;38.88;;;7.00;99.90;;;;;;4951560;28;20105;-73
2023/03/07 01:59:20;;;;;;;65.38;40.10;;;6.90;99.90;;;;;;4971339;28;20045;-72
2023/03/07 02:01:51;;;;;;;62.33;39.58;;;7.00;99.90;;;;;;4968057;28;20126;-72
2023/03/07 02:04:43;;;;;;;62.78;38.95;;;6.80;99.90;;;;;;4945176;28;20082;-72
2023/03/07 02:07:12;;;;;;;57.80;37.85;;;6.70;99.90;;;;;;4944856;28;20049;-72
2023/03/07 02:09:42;;;;;;;62.50;37.40;;;6.80;99.90;;;;;;4954018;28;20062;-72
2023/03/07 02:12:09;;;;;;;54.75;36.30;;;7.00;99.90;;;;;;4971129;28;20053;-72
2023/03/07 02:14:37;;;;;;;59.88;38.15;;;6.90;99.90;;;;;;4954896;28;20377;-72
2023/03/07 02:17:05;;;;;;;62.10;38.40;;;6.80;99.90;;;;;;4967982;28;20398;-73
2023/03/07 02:20:10;;;;;;;60.85;37.97;;;6.90;99.90;;;;;;4952623;28;20414;-72
2023/03/07 02:22:39;;;;;;;61.75;36.45;;;6.70;99.90;;;;;;4969266;28;20043;-70
2023/03/07 02:25:21;;;;;;;59.63;35.63;;;6.50;99.90;;;;;;4970826;28;20047;-72
2023/03/07 02:27:51;;;;;;;60.08;34.67;;;6.40;99.90;;;;;;4970813;28;20046;-72
2023/03/07 02:30:19;;;;;;;45.35;29.42;;;6.50;99.90;;;;;;4954597;28;20039;-72
2023/03/07 02:32:46;;;;;;;39.63;25.75;;;6.50;99.90;;;;;;4971146;28;20050;-73
2023/03/07 02:35:20;;;;;;;39.15;23.38;;;6.40;99.90;;;;;;4973827;28;20411;-72
2023/03/07 02:37:54;;;;;;;37.03;24.55;;;6.50;99.90;;;;;;4945466;28;20046;-72
2023/03/07 02:40:25;;;;;;;36.55;24.90;;;6.50;99.90;;;;;;4974117;28;20054;-69
2023/03/07 02:42:54;;;;;;;43.22;26.35;;;6.50;99.90;;;;;;4942045;28;20267;-72
2023/03/07 02:45:21;;;;;;;40.67;26.17;;;6.50;99.90;;;;;;4974767;28;20395;-72
2023/03/07 02:47:48;;;;;;;36.70;23.70;;;6.00;99.90;;;;;;4964853;28;20043;-73
2023/03/07 02:50:18;;;;;;;31.67;20.75;;;6.00;99.90;;;;;;4956994;28;20051;-74
2023/03/07 02:52:45;;;;;;;35.08;22.63;;;6.20;99.90;;;;;;4974199;28;20047;-72
2023/03/07 02:55:12;;;;;;;37.95;23.13;;;6.10;99.90;;;;;;4974069;28;20038;-72
2023/03/07 02:57:39;;;;;;;34.28;22.55;;;6.30;99.90;;;;;;4974363;28;20046;-73
2023/03/07 03:00:08;;;;;;;34.63;23.63;;;6.10;99.90;;;;;;4973436;28;20035;-73
2023/03/07 03:02:36;;;;;;;39.77;24.47;;;5.90;99.90;;;;;;4957570;28;20035;-72
2023/03/07 03:05:07;;;;;;;38.05;25.20;;;6.10;99.90;;;;;;4957214;28;20043;-73
2023/03/07 03:07:39;;;;;;;43.97;25.42;;;6.20;99.90;;;;;;4956807;28;20039;-72
2023/03/07 03:10:07;;;;;;;40.83;24.85;;;6.30;99.90;;;;;;4962156;28;20395;-73
2023/03/07 03:12:34;;;;;;;37.47;24.98;;;6.30;99.90;;;;;;4973301;28;20059;-72
2023/03/07 03:15:02;;;;;;;35.63;23.83;;;6.20;99.90;;;;;;4973907;28;20055;-72
2023/03/07 03:17:29;;;;;;;38.30;24.23;;;6.10;99.90;;;;;;4956976;28;20046;-72
2023/03/07 03:19:56;;;;;;;34.03;25.13;;;6.00;99.90;;;;;;4974295;28;20126;-73
2023/03/07 03:22:24;;;;;;;42.35;24.35;;;6.00;99.90;;;;;;4973721;28;20041;-74
2023/03/07 03:24:51;;;;;;;42.22;26.00;;;6.10;99.90;;;;;;4956614;28;20049;-73
2023/03/07 03:27:21;;;;;;;41.63;27.17;;;6.20;99.90;;;;;;4940993;28;20047;-73
2023/03/07 03:29:49;;;;;;;;;;;6.20;99.90;;;;;;4970426;28;20027;-73
2023/03/07 03:32:16;;;;;;;48.10;27.17;;;6.00;99.90;;;;;;4922463;29;19973;-72
2023/03/07 03:34:43;;;;;;;46.88;27.70;;;6.00;99.90;;;;;;4955332;28;20039;-73
2023/03/07 03:37:10;;;;;;;46.80;27.40;;;6.10;99.90;;;;;;4973485;28;20046;-73
2023/03/07 03:39:38;;;;;;;50.22;29.50;;;6.10;99.90;;;;;;4963149;28;20046;-73
2023/03/07 03:42:08;;;;;;;48.80;32.30;;;6.10;99.90;;;;;;4969658;28;20039;-73
2023/03/07 03:44:35;;;;;;;44.88;29.58;;;6.10;99.90;;;;;;4956411;28;20062;-73
2023/03/07 03:47:03;;;;;;;43.65;30.05;;;6.10;99.90;;;;;;4955768;28;20089;-71
2023/03/07 03:49:31;;;;;;;42.72;28.27;;;5.90;99.90;;;;;;4956629;28;20418;-71
2023/03/07 03:51:59;;;;;;;43.95;27.35;;;6.00;99.90;;;;;;4954327;28;20050;-74
2023/03/07 03:54:30;;;;;;;42.42;27.30;;;5.90;99.90;;;;;;4940658;28;20293;-73
2023/03/07 03:56:58;;;;;;;43.08;26.63;;;5.80;99.90;;;;;;4963176;28;20121;-73
2023/03/07 03:59:25;;;;;;;39.60;25.83;;;5.70;99.90;;;;;;4973530;28;20487;-71
2023/03/07 04:01:55;;;;;;;43.45;26.30;;;5.70;99.90;;;;;;4956013;28;20058;-71
2023/03/07 04:04:22;;;;;;;42.15;25.77;;;5.70;99.90;;;;;;4940166;28;20491;-70
2023/03/07 04:06:49;;;;;;;47.65;27.65;;;5.60;99.90;;;;;;4968792;28;20471;-71
2023/03/07 04:09:17;;;;;;;44.50;27.00;;;5.50;99.90;;;;;;4967597;28;20050;-70
2023/03/07 04:11:44;;;;;;;46.78;27.85;;;5.50;99.90;;;;;;4972800;28;20042;-71
2023/03/07 04:14:11;;;;;;;42.53;27.55;;;5.70;99.90;;;;;;4955593;28;20055;-71
2023/03/07 04:16:38;;;;;;;41.00;26.98;;;5.80;99.90;;;;;;4967244;28;20036;-70
2023/03/07 04:19:07;;;;;;;40.70;26.35;;;5.70;99.90;;;;;;4955571;28;20078;-71
2023/03/07 04:21:34;;;;;;;39.50;24.83;;;5.70;99.90;;;;;;4945618;28;20407;-71
2023/03/07 04:24:01;;;;;;;38.70;25.48;;;5.40;99.90;;;;;;4972700;28;20043;-71
2023/03/07 04:26:28;;;;;;;41.22;25.48;;;5.50;99.90;;;;;;4955512;28;20364;-71
2023/03/07 04:28:56;;;;;;;42.78;25.67;;;5.70;99.90;;;;;;4969930;28;20078;-71
2023/03/07 04:31:25;;;;;;;41.95;26.75;;;5.60;99.90;;;;;;4972590;28;20038;-71
2023/03/07 04:33:55;;;;;;;48.20;26.63;;;5.30;99.90;;;;;;4972221;28;20404;-71
2023/03/07 04:36:23;;;;;;;39.00;26.48;;;5.30;99.90;;;;;;4972362;28;20513;-71
2023/03/07 04:38:50;;;;;;;43.75;24.42;;;5.30;99.90;;;;;;4972581;28;20406;-70
2023/03/07 04:41:24;;;;;;;39.15;25.58;;;5.30;99.90;;;;;;4972431;28;20097;-71
2023/03/07 04:43:52;;;;;;;38.70;23.77;;;5.50;99.90;;;;;;4939593;28;20053;-73
2023/03/07 04:46:19;;;;;;;42.33;25.17;;;5.60;99.90;;;;;;4973212;28;20038;-73
2023/03/07 04:48:47;;;;;;;38.58;23.67;;;5.70;99.90;;;;;;4954651;28;20058;-73
2023/03/07 04:51:14;;;;;;;38.63;24.08;;;5.50;99.90;;;;;;4939578;28;20051;-73
2023/03/07 04:53:41;;;;;;;45.03;25.95;;;5.40;99.90;;;;;;4954698;28;20514;-74
2023/03/07 04:56:09;;;;;;;41.40;25.05;;;5.60;99.90;;;;;;4972133;28;20050;-72
2023/03/07 04:58:37;;;;;;;38.55;24.40;;;5.80;99.90;;;;;;4972400;28;20037;-73
2023/03/07 05:01:05;;;;;;;40.45;25.13;;;5.70;99.90;;;;;;4955194;28;20074;-72
2023/03/07 05:03:33;;;;;;;38.17;23.42;;;5.60;99.90;;;;;;4971878;28;20046;-71
2023/03/07 05:06:04;;;;;;;35.22;21.58;;;5.80;99.90;;;;;;4972420;28;20126;-71
2023/03/07 05:08:31;;;;;;;;;;;5.80;99.90;;;;;;4955204;28;20045;-73
2023/03/07 05:10:58;;;;;;;33.20;21.48;;;5.60;99.90;;;;;;4955062;28;19929;-73
2023/03/07 05:13:26;;;;;;;35.97;21.77;;;5.50;99.90;;;;;;4954370;28;20062;-73
2023/03/07 05:15:56;;;;;;;35.97;21.65;;;5.70;99.90;;;;;;4939056;28;20407;-73
2023/03/07 05:18:25;;;;;;;40.10;23.27;;;5.80;99.90;;;;;;4952148;29;20039;-73
2023/03/07 05:20:52;;;;;;;34.65;23.42;;;5.80;99.90;;;;;;4920676;28;20054;-73
2023/03/07 05:23:20;;;;;;;36.83;23.77;;;5.90;99.90;;;;;;4954705;28;20487;-73
2023/03/07 05:25:48;;;;;;;37.78;24.45;;;5.80;99.90;;;;;;4971685;28;20039;-72
2023/03/07 05:28:15;;;;;;;38.50;23.08;;;5.70;99.90;;;;;;4937829;28;20717;-72
2023/03/07 05:30:44;;;;;;;38.63;22.75;;;5.80;99.90;;;;;;4921755;23;20123;-73
2023/03/07 05:33:12;;;;;;;37.08;22.77;;;5.60;99.90;;;;;;4926485;29;20043;-73
2023/03/07 05:35:39;;;;;;;35.75;22.73;;;5.30;99.90;;;;;;4933255;29;20043;-73
2023/03/07 05:38:07;;;;;;;35.78;21.45;;;5.60;99.90;;;;;;4915137;29;20033;-73
2023/03/07 05:40:34;;;;;;;35.85;21.30;;;5.90;99.90;;;;;;4897381;29;20672;-73
2023/03/07 05:43:02;;;;;;;32.08;21.20;;;6.00;99.90;;;;;;4912728;29;20400;-72
2023/03/07 05:45:29;;;;;;;66.53;36.92;;;6.20;99.90;;;;;;4910451;29;20638;-72
2023/03/07 05:47:57;;;;;;;101.13;55.47;;;6.30;99.90;;;;;;4907279;29;20437;-73
2023/03/07 05:50:24;;;;;;;39.88;26.38;;;6.40;99.90;;;;;;4897479;29;20064;-71
2023/03/07 05:52:51;;;;;;;36.95;22.15;;;6.40;99.90;;;;;;4906192;29;20044;-70
2023/03/07 05:55:19;;;;;;;24.45;14.73;;;6.40;99.90;;;;;;4902965;29;20099;-71
2023/03/07 05:57:46;;;;;;;27.08;16.83;;;6.30;99.90;;;;;;4906541;29;20044;-71
2023/03/07 06:00:14;;;;;;;22.98;15.82;;;5.90;99.90;;;;;;4896825;29;20398;-71
2023/03/07 06:02:42;;;;;;;25.30;14.45;;;5.90;99.90;;;;;;4912008;29;20095;-72
2023/03/07 06:05:09;;;;;;;22.33;14.88;;;6.00;99.90;;;;;;4911644;29;20040;-72
2023/03/07 06:07:36;;;;;;;24.23;13.77;;;5.80;99.90;;;;;;4898412;29;20051;-75
2023/03/07 06:10:04;;;;;;;23.77;14.05;;;5.90;99.90;;;;;;4902061;29;20040;-72
2023/03/07 06:12:31;;;;;;;19.55;13.70;;;5.80;99.90;;;;;;4917733;29;20036;-73
2023/03/07 06:14:59;;;;;;;23.08;14.60;;;6.00;99.90;;;;;;4907712;29;20124;-71
2023/03/07 06:17:28;;;;;;;21.40;14.05;;;6.30;99.90;;;;;;4907744;29;20404;-73
2023/03/07 06:19:56;;;;;;;40.50;25.87;;;6.50;99.90;;;;;;4907198;29;20047;-72
2023/03/07 06:22:30;;;;;;;36.92;23.20;;;6.60;99.90;;;;;;4912549;29;20037;-73
2023/03/07 06:25:05;;;;;;;46.40;28.98;;;6.60;99.90;;;;;;4897170;29;20402;-71
2023/03/07 06:27:35;;;;;;;37.45;22.23;;;6.80;99.90;;;;;;4896719;29;20041;-72
2023/03/07 06:30:06;;;;;;;22.02;15.65;;;6.90;99.90;;;;;;4907253;29;20052;-70
2023/03/07 06:32:33;;;;;;;19.27;13.23;;;6.80;99.90;;;;;;4885684;29;20127;-73
2023/03/07 06:35:01;;;;;;;18.77;13.52;;;6.70;99.90;;;;;;4913649;29;20059;-72
2023/03/07 06:37:28;;;;;;;22.23;14.93;;;6.90;99.90;;;;;;4914668;29;20044;-71
2023/03/07 06:39:55;;;;;;;37.78;24.48;;;6.90;99.90;;;;;;4900185;29;20049;-72
2023/03/07 06:42:23;;;;;;;48.28;29.50;;;7.20;99.90;;;;;;4902969;29;20051;-72
2023/03/07 06:44:50;;;;;;;54.47;30.42;;;7.30;99.90;;;;;;4916137;29;20474;-72
2023/03/07 06:47:18;;;;;;;43.78;30.02;;;7.30;99.90;;;;;;4904002;29;20044;-72
2023/03/07 06:49:45;;;;;;;43.17;29.42;;;7.20;99.90;;;;;;4899312;29;20052;-71
2023/03/07 06:52:12;;;;;;;43.92;28.40;;;7.20;99.90;;;;;;4900577;29;20044;-72
2023/03/07 06:54:39;;;;;;;48.60;28.25;;;7.30;99.90;;;;;;4899282;29;20045;-72
2023/03/07 06:57:09;;;;;;;43.00;28.88;;;7.30;99.90;;;;;;4901109;29;20059;-73
2023/03/07 06:59:36;;;;;;;41.70;28.23;;;7.30;99.90;;;;;;4900783;29;20048;-72
2023/03/07 07:02:04;;;;;;;42.65;29.42;;;7.40;99.90;;;;;;4905937;29;20048;-73
2023/03/07 07:04:32;;;;;;;42.67;28.50;;;7.50;99.90;;;;;;4904203;29;20036;-71
2023/03/07 07:06:59;;;;;;;42.92;26.73;;;7.50;99.90;;;;;;4899073;29;20388;-72
2023/03/07 07:09:27;;;;;;;47.13;27.92;;;7.60;99.90;;;;;;4899826;29;20405;-73
2023/03/07 07:11:55;;;;;;;39.92;26.55;;;7.60;99.90;;;;;;4905818;29;20402;-71
2023/03/07 07:14:27;;;;;;;42.03;24.95;;;7.50;99.90;;;;;;4904167;29;20044;-74
2023/03/07 07:16:55;;;;;;;41.55;27.35;;;7.60;99.90;;;;;;4883352;29;20417;-72
2023/03/07 07:19:22;;;;;;;51.38;31.73;;;7.90;99.90;;;;;;4901296;29;20059;-71
2023/03/07 07:21:49;;;;;;;33.00;22.30;;;8.10;99.90;;;;;;4903566;29;20059;-73
2023/03/07 07:24:21;;;;;;;30.50;22.35;;;7.90;99.90;;;;;;4916085;29;20047;-74
2023/03/07 07:26:50;;;;;;;32.58;21.33;;;8.00;99.90;;;;;;4900194;29;20060;-74
2023/03/07 07:29:18;;;;;;;33.90;20.85;;;8.00;99.90;;;;;;4911782;29;20413;-73
2023/03/07 07:31:45;;;;;;;28.95;21.00;;;8.10;99.90;;;;;;4915655;29;20059;-71
2023/03/07 07:34:13;;;;;;;30.65;20.52;;;8.20;99.90;;;;;;4914344;29;20045;-72
2023/03/07 07:36:40;;;;;;;32.42;21.13;;;8.10;99.90;;;;;;4899805;29;20052;-71
2023/03/07 07:39:09;;;;;;;31.02;21.33;;;8.10;99.90;;;;;;4914923;29;20048;-72
2023/03/07 07:41:37;;;;;;;30.70;20.98;;;8.30;99.90;;;;;;4927508;29;20381;-71
2023/03/07 07:44:04;;;;;;;37.22;21.65;;;8.40;99.90;;;;;;4915988;29;20127;-72
2023/03/07 07:46:32;;;;;;;35.20;20.80;;;8.50;99.90;;;;;;4910558;29;20046;-72
2023/03/07 07:48:59;;;;;;;37.45;22.35;;;8.50;99.90;;;;;;4907338;29;20052;-73
2023/03/07 07:51:26;;;;;;;34.65;23.27;;;8.60;99.90;;;;;;4912060;29;20037;-72
2023/03/07 07:53:54;;;;;;;36.75;22.50;;;8.70;99.90;;;;;;4896855;29;20070;-72
2023/03/07 07:56:21;;;;;;;40.90;24.40;;;8.80;99.90;;;;;;4911351;29;20048;-70
2023/03/07 07:58:48;;;;;;;42.40;25.33;;;9.00;99.90;;;;;;4903496;29;20051;-70
2023/03/07 08:01:22;;;;;;;47.75;25.13;;;8.80;99.90;;;;;;4917170;29;20044;-71
2023/03/07 08:03:49;;;;;;;43.40;23.77;;;8.90;99.90;;;;;;4924024;29;20097;-72
2023/03/07 08:06:19;;;;;;;47.78;24.73;;;9.20;99.90;;;;;;4909343;29;20099;-72
2023/03/07 08:08:47;;;;;;;153.45;78.25;;;9.40;99.90;;;;;;4904735;29;20067;-72
2023/03/07 08:11:15;;;;;;;79.45;44.42;;;9.90;99.90;;;;;;4906539;29;20469;-72
2023/03/07 08:13:42;;;;;;;41.70;26.92;;;10.40;99.90;;;;;;4904725;29;20048;-72
2023/03/07 08:16:14;;;;;;;40.38;23.35;;;10.30;99.90;;;;;;4913779;29;20032;-70
2023/03/07 08:18:46;;;;;;;39.55;22.88;;;10.20;99.90;;;;;;4914343;29;20561;-72
2023/03/07 08:21:14;;;;;;;38.97;24.38;;;10.20;99.90;;;;;;4892185;29;20040;-72
2023/03/07 08:23:42;;;;;;;35.63;20.67;;;10.30;99.90;;;;;;4914244;29;20078;-73
2023/03/07 08:26:12;;;;;;;35.13;20.92;;;10.20;99.90;;;;;;4915458;29;20048;-70
2023/03/07 08:28:40;;;;;;;37.53;22.20;;;10.40;99.90;;;;;;4915146;29;20051;-70
2023/03/07 08:31:16;;;;;;;31.98;20.15;;;10.50;99.90;;;;;;4907633;29;20048;-69
2023/03/07 08:33:46;;;;;;;31.58;20.10;;;10.60;99.90;;;;;;4897991;29;20115;-70
2023/03/07 08:36:13;;;;;;;32.75;19.38;;;10.60;99.90;;;;;;4931328;29;20051;-69
2023/03/07 08:38:41;;;;;;;30.63;17.90;;;10.60;99.90;;;;;;4900758;29;20049;-69
2023/03/07 08:41:09;;;;;;;27.83;17.10;;;10.80;99.90;;;;;;4934102;29;20047;-71
2023/03/07 08:43:38;;;;;;;25.42;15.85;;;11.00;99.90;;;;;;4911529;29;20125;-70
2023/03/07 08:46:05;;;;;;;26.13;16.00;;;11.10;99.90;;;;;;4921776;29;20036;-70
2023/03/07 08:48:33;;;;;;;27.67;15.77;;;11.20;99.90;;;;;;4919388;29;20042;-70
2023/03/07 08:51:10;;;;;;;25.20;15.13;;;11.10;99.90;;;;;;4920843;29;20036;-70
2023/03/07 08:53:43;;;;;;;27.67;16.23;;;11.30;99.90;;;;;;4912676;29;20043;-72
2023/03/07 08:56:13;;;;;;;25.00;15.73;;;11.50;99.90;;;;;;4912009;29;20051;-70
2023/03/07 08:58:41;;;;;;;24.67;14.18;;;11.70;99.90;;;;;;4911052;29;20461;-69
2023/03/07 09:01:09;;;;;;;26.13;14.20;;;11.70;99.90;;;;;;4930768;29;20453;-71
2023/03/07 09:03:36;;;;;;;24.05;14.63;;;11.80;99.60;;;;;;4930769;29;20047;-69
2023/03/07 09:06:04;;;;;;;19.45;12.50;;;12.00;99.30;;;;;;4929109;29;20044;-70
2023/03/07 09:08:32;;;;;;;21.00;14.15;;;12.10;99.00;;;;;;4928509;29;20183;-71
2023/03/07 09:11:02;;;;;;;20.58;11.63;;;12.30;98.80;;;;;;4912594;29;20054;-71
2023/03/07 09:13:30;;;;;;;19.35;12.30;;;12.40;97.60;;;;;;4923348;29;20067;-70
2023/03/07 09:16:05;;;;;;;17.80;12.05;;;12.40;97.30;;;;;;4929285;29;20075;-71
2023/03/07 09:18:33;;;;;;;19.05;12.30;;;12.50;97.00;;;;;;4926926;29;20052;-70
2023/03/07 09:21:02;;;;;;;21.30;12.15;;;12.60;97.50;;;;;;4930463;29;20040;-71
2023/03/07 09:23:29;;;;;;;16.60;10.25;;;12.90;97.50;;;;;;4927043;29;20062;-70
2023/03/07 09:26:04;;;;;;;17.77;10.45;;;13.00;95.90;;;;;;4928440;29;20048;-69
2023/03/07 09:28:31;;;;;;;17.23;9.93;;;13.00;95.60;;;;;;4929770;29;20046;-70
2023/03/07 09:31:04;;;;;;;16.45;11.00;;;13.20;95.40;;;;;;4907737;29;20044;-70
2023/03/07 09:33:32;;;;;;;16.98;11.07;;;13.20;95.30;;;;;;4910535;29;20103;-70
2023/03/07 09:36:03;;;;;;;15.15;9.90;;;13.20;95.10;;;;;;4908432;29;20168;-70
2023/03/07 09:38:35;;;;;;;12.23;8.70;;;13.40;94.60;;;;;;4905458;29;20048;-73
2023/03/07 09:41:25;;;;;;;14.40;9.52;;;13.50;93.80;;;;;;4897199;29;20461;-70
2023/03/07 09:44:18;;;;;;;12.87;7.20;;;13.60;93.40;;;;;;4905430;29;20055;-70
2023/03/07 09:47:09;;;;;;;13.52;8.55;;;13.60;91.30;;;;;;4890137;29;20063;-70
2023/03/07 09:49:48;;;;;;;12.60;7.72;;;13.60;92.40;;;;;;4915744;29;20651;-73
2023/03/07 09:52:23;;;;;;;12.25;6.85;;;13.80;91.00;;;;;;4911606;29;20401;-70
2023/03/07 09:55:00;;;;;;;12.68;7.07;;;13.70;90.40;;;;;;4907265;29;20047;-73
2023/03/07 09:57:49;;;;;;;9.00;5.60;;;13.90;90.30;;;;;;4911797;29;20718;-71
2023/03/07 10:00:25;;;;;;;10.90;5.75;;;13.90;86.60;;;;;;4921333;29;20044;-71
2023/03/07 10:03:30;;;;;;;9.77;5.28;;;14.10;86.40;;;;;;4926294;29;20412;-71
2023/03/07 10:06:13;;;;;;;7.70;4.90;;;14.30;85.10;;;;;;4910175;29;20045;-70
2023/03/07 10:08:40;;;;;;;8.05;4.95;;;14.50;84.80;;;;;;4896717;29;20051;-72
2023/03/07 10:11:11;;;;;;;7.95;4.32;;;14.50;82.30;;;;;;4911021;29;20119;-71
2023/03/07 10:14:05;;;;;;;8.95;4.65;;;14.70;81.50;;;;;;4919016;29;20111;-72
2023/03/07 10:17:06;;;;;;;10.02;4.82;;;15.00;80.20;;;;;;4909799;29;20058;-70
2023/03/07 10:19:45;;;;;;;7.60;4.15;;;14.90;80.10;;;;;;4915269;29;20505;-73
2023/03/07 10:22:31;;;;;;;8.02;4.22;;;15.00;78.80;;;;;;4913743;29;20060;-71
2023/03/07 10:24:58;;;;;;;7.65;4.88;;;15.20;78.30;;;;;;4915735;29;20390;-71
2023/03/07 10:27:29;;;;;;;9.15;4.82;;;15.20;79.30;;;;;;4922986;29;20059;-72
2023/03/07 10:30:10;;;;;;;8.35;4.97;;;15.30;79.30;;;;;;4905592;29;20530;-71
2023/03/07 10:32:48;;;;;;;8.23;4.43;;;15.40;77.30;;;;;;4899000;29;20059;-73
2023/03/07 10:35:20;;;;;;;8.13;4.18;;;15.50;77.50;;;;;;4939006;23;20040;-77
2023/03/07 10:38:00;;;;;;;10.90;5.15;;;15.80;76.70;;;;;;4909850;29;20031;-71
2023/03/07 10:40:39;;;;;;;8.38;4.45;;;16.00;78.60;;;;;;4925708;29;20036;-70
2023/03/07 10:43:23;;;;;;;5.45;3.20;;;16.10;73.30;;;;;;4914363;29;20051;-71
2023/03/07 10:46:16;;;;;;;5.32;3.30;;;16.40;71.40;;;;;;4930355;29;20532;-69
2023/03/07 10:49:16;;;;;;;6.65;3.00;;;16.60;68.10;;;;;;4924059;29;20494;-71
2023/03/07 10:51:44;;;;;;;6.25;3.00;;;16.70;67.70;;;;;;4927459;29;20044;-71
2023/03/07 10:54:19;;;;;;;9.35;6.45;;;16.50;67.50;;;;;;4928940;29;20131;-70
2023/03/07 10:57:05;;;;;;;7.30;4.80;;;16.60;67.70;;;;;;4930800;29;20381;-75
2023/03/07 10:59:35;;;;;;;5.93;2.78;;;17.10;68.30;;;;;;4931558;29;20555;-72
2023/03/07 11:02:31;;;;;;;4.43;2.70;;;17.20;64.60;;;;;;4932120;29;20036;-72
2023/03/07 11:04:59;;;;;;;6.25;4.13;;;17.10;64.30;;;;;;4928396;29;20501;-73
2023/03/07 11:07:33;;;;;;;12.40;4.93;;;17.50;65.20;;;;;;4918848;29;20047;-71
2023/03/07 11:10:21;;;;;;;5.32;2.85;;;18.40;63.40;;;;;;4929908;29;20135;-71
2023/03/07 11:12:49;;;;;;;5.13;3.03;;;19.10;60.70;;;;;;4929030;29;20043;-71
2023/03/07 11:15:26;;;;;;;5.22;3.05;;;20.50;57.90;;;;;;4931517;29;20036;-72
2023/03/07 11:17:53;;;;;;;8.63;3.30;;;22.20;55.20;;;;;;4919826;29;20484;-72
2023/03/07 11:20:22;;;;;;;5.97;3.05;;;22.80;51.70;;;;;;4932085;29;20115;-71
2023/03/07 11:23:18;;;;;;;5.50;2.80;;;23.70;50.00;;;;;;4930596;29;20502;-73
2023/03/07 11:25:45;;;;;;;5.32;2.60;;;25.00;47.70;;;;;;4932575;29;20059;-74
2023/03/07 11:28:35;;;;;;;4.72;2.55;;;23.90;48.40;;;;;;4922616;29;20047;-72
2023/03/07 11:31:41;;;;;;;5.85;2.90;;;21.20;51.10;;;;;;4938451;29;20052;-72
2023/03/07 11:34:35;;;;;;;36.53;24.08;;;20.10;52.90;;;;;;4944240;23;20066;-71
2023/03/07 11:37:21;;;;;;;22.58;15.32;;;19.10;52.70;;;;;;4927512;29;20125;-71
2023/03/07 11:40:21;;;;;;;6.90;4.30;;;18.50;55.10;;;;;;4928413;29;20094;-72
2023/03/07 11:43:18;;;;;;;5.22;2.58;;;18.60;55.40;;;;;;4899764;29;20043;-71
2023/03/07 11:46:06;;;;;;;4.70;2.72;;;19.00;55.30;;;;;;4943162;29;20476;-71
2023/03/07 11:49:22;;;;;;;5.65;3.60;;;18.80;55.80;;;;;;4942620;29;20024;-72
2023/03/07 11:52:13;;;;;;;4.33;2.57;;;19.00;55.90;;;;;;4887016;29;20047;-72
2023/03/07 11:55:01;;;;;;;5.45;2.72;;;18.90;56.20;;;;;;4940237;29;20403;-72
2023/03/07 11:57:41;;;;;;;5.03;2.53;;;19.30;56.20;;;;;;4925720;29;21452;-70
2023/03/07 12:00:56;;;;;;;7.97;3.25;;;19.60;55.10;;;;;;4925121;29;20047;-71
2023/03/07 12:03:46;;;;;;;5.20;2.83;;;19.90;56.20;;;;;;4897337;29;20043;-73
2023/03/07 12:06:36;;;;;;;4.85;2.55;;;19.00;55.60;;;;;;4922703;29;20039;-72
2023/03/07 12:09:28;;;;;;;9.13;2.60;;;19.40;55.40;;;;;;4923249;29;20511;-73
2023/03/07 12:12:54;;;;;;;4.88;2.50;;;20.00;54.10;;;;;;4911129;29;20079;-71
2023/03/07 12:15:24;;;;;;;4.63;2.42;;;20.10;54.80;;;;;;4867192;29;20043;-71
2023/03/07 12:17:59;;;;;;;6.57;3.05;;;20.10;54.90;;;;;;4904761;29;20539;-73
2023/03/07 12:20:36;;;;;;;6.93;2.53;;;20.80;54.70;;;;;;4915457;29;20039;-71
2023/03/07 12:23:14;;;;;;;46.70;31.17;;;20.20;54.60;;;;;;4920871;29;20369;-73
2023/03/07 12:25:47;;;;;;;40.30;26.02;;;19.70;57.00;;;;;;4925555;29;20110;-73
2023/03/07 12:28:34;;;;;;;84.50;54.10;;;21.90;55.80;;;;;;4909399;29;20055;-73
2023/03/07 12:31:29;;;;;;;35.47;23.92;;;25.20;49.10;;;;;;4907564;29;20415;-74
2023/03/07 12:34:10;;;;;;;9.05;5.72;;;27.20;44.60;;;;;;4909661;29;20051;-74
2023/03/07 12:37:28;;;;;;;3.88;2.15;;;27.00;45.00;;;;;;4904968;29;20146;-72
2023/03/07 12:40:04;;;;;;;6.45;2.60;;;25.90;45.40;;;;;;4919285;23;20112;-73
2023/03/07 12:42:55;;;;;;;6.45;3.20;;;26.10;45.60;;;;;;4907438;29;20051;-72
2023/03/07 12:45:42;;;;;;;5.60;2.40;;;26.40;44.50;;;;;;4911503;29;20043;-73
2023/03/07 12:48:39;;;;;;;5.33;2.77;;;26.30;44.20;;;;;;4918453;29;20473;-70
2023/03/07 12:51:30;;;;;;;5.75;2.60;;;26.80;44.00;;;;;;4921000;29;20286;-71
2023/03/07 12:54:03;;;;;;;6.03;2.72;;;25.50;44.30;;;;;;4912347;29;20056;-73
2023/03/07 12:57:05;;;;;;;4.50;1.95;;;23.70;47.10;;;;;;4901933;29;20052;-71
2023/03/07 12:59:50;;;;;;;5.20;2.63;;;25.80;44.70;;;;;;4924469;29;20094;-72
2023/03/07 13:02:40;;;;;;;6.15;2.60;;;28.60;42.30;;;;;;4922943;29;20096;-76
2023/03/07 13:05:23;;;;;;;5.95;2.50;;;29.60;40.90;;;;;;4917532;29;20407;-77
2023/03/07 13:07:52;;;;;;;3.42;1.98;;;28.20;41.60;;;;;;4902072;29;20115;-75